sensor_id;sensor_type;location;lat;lon;timestamp;P1;durP1;ratioP1;P2;durP2;ratioP2
21771;SDS011;11047;47.904;8.110;2022-09-03T00:01:26;3.33;;;3.03;;
21771;SDS011;11047;47.904;8.110;2022-09-03T00:04:01;3.33;;;2.97;;
21771;SDS011;11047;47.904;8.110;2022-09-03T00:06:35;2.97;;;2.78;;
21771;SDS011;11047;47.904;8.110;2022-09-03T00:09:11;3.78;;;2.92;;
21771;SDS011;11047;47.904;8.110;2022-09-03T00:11:42;4.47;;;2.90;;
21771;SDS011;11047;47.904;8.110;2022-09-03T00:14:17;3.13;;;2.83;;
21771;SDS011;11047;47.904;8.110;2022-09-03T00:16:47;6.05;;;3.22;;
21771;SDS011;11047;47.904;8.110;2022-09-03T00:19:20;4.82;;;2.90;;
21771;SDS011;11047;47.904;8.110;2022-09-03T00:21:52;4.10;;;3.80;;
21771;SDS011;11047;47.904;8.110;2022-09-03T00:24:22;3.70;;;3.20;;
21771;SDS011;11047;47.904;8.110;2022-09-03T00:26:56;4.30;;;3.50;;
21771;SDS011;11047;47.904;8.110;2022-09-03T00:29:30;3.35;;;3.05;;
21771;SDS011;11047;47.904;8.110;2022-09-03T00:32:05;4.85;;;3.13;;
21771;SDS011;11047;47.904;8.110;2022-09-03T00:34:37;3.85;;;2.78;;
21771;SDS011;11047;47.904;8.110;2022-09-03T00:37:07;5.00;;;3.30;;
21771;SDS011;11047;47.904;8.110;2022-09-03T00:39:34;3.35;;;3.05;;
21771;SDS011;11047;47.904;8.110;2022-09-03T00:42:06;4.57;;;3.38;;
21771;SDS011;11047;47.904;8.110;2022-09-03T00:44:55;3.90;;;3.05;;
21771;SDS011;11047;47.904;8.110;2022-09-03T00:47:44;3.47;;;3.10;;
21771;SDS011;11047;47.904;8.110;2022-09-03T00:50:22;3.90;;;3.00;;
21771;SDS011;11047;47.904;8.110;2022-09-03T00:53:01;4.65;;;2.55;;
21771;SDS011;11047;47.904;8.110;2022-09-03T00:55:38;3.25;;;2.97;;
21771;SDS011;11047;47.904;8.110;2022-09-03T00:58:18;6.20;;;3.20;;
21771;SDS011;11047;47.904;8.110;2022-09-03T01:01:00;2.97;;;2.78;;
21771;SDS011;11047;47.904;8.110;2022-09-03T01:03:35;3.75;;;3.30;;
21771;SDS011;11047;47.904;8.110;2022-09-03T01:06:12;4.18;;;3.45;;
21771;SDS011;11047;47.904;8.110;2022-09-03T01:11:46;3.88;;;3.47;;
21771;SDS011;11047;47.904;8.110;2022-09-03T01:14:28;3.40;;;3.10;;
21771;SDS011;11047;47.904;8.110;2022-09-03T01:17:07;5.10;;;3.55;;
21771;SDS011;11047;47.904;8.110;2022-09-03T01:22:48;3.30;;;3.08;;
21771;SDS011;11047;47.904;8.110;2022-09-03T01:25:34;3.42;;;2.88;;
21771;SDS011;11047;47.904;8.110;2022-09-03T01:28:16;6.95;;;3.50;;
21771;SDS011;11047;47.904;8.110;2022-09-03T01:30:51;6.13;;;3.30;;
21771;SDS011;11047;47.904;8.110;2022-09-03T01:33:27;4.18;;;3.10;;
21771;SDS011;11047;47.904;8.110;2022-09-03T01:35:59;3.65;;;2.97;;
21771;SDS011;11047;47.904;8.110;2022-09-03T01:38:31;3.53;;;3.03;;
21771;SDS011;11047;47.904;8.110;2022-09-03T01:41:06;5.07;;;3.50;;
21771;SDS011;11047;47.904;8.110;2022-09-03T01:44:04;3.83;;;3.47;;
21771;SDS011;11047;47.904;8.110;2022-09-03T01:46:56;4.22;;;3.60;;
21771;SDS011;11047;47.904;8.110;2022-09-03T01:49:32;5.47;;;3.20;;
21771;SDS011;11047;47.904;8.110;2022-09-03T01:52:06;6.65;;;4.13;;
21771;SDS011;11047;47.904;8.110;2022-09-03T01:54:47;7.87;;;3.97;;
21771;SDS011;11047;47.904;8.110;2022-09-03T01:57:38;5.03;;;4.00;;
21771;SDS011;11047;47.904;8.110;2022-09-03T02:00:14;4.07;;;3.78;;
21771;SDS011;11047;47.904;8.110;2022-09-03T02:02:42;5.82;;;3.80;;
21771;SDS011;11047;47.904;8.110;2022-09-03T02:05:12;7.10;;;3.60;;
21771;SDS011;11047;47.904;8.110;2022-09-03T02:07:42;3.90;;;3.40;;
21771;SDS011;11047;47.904;8.110;2022-09-03T02:13:34;6.18;;;3.65;;
21771;SDS011;11047;47.904;8.110;2022-09-03T07:16:21;2.53;;;2.33;;
21771;SDS011;11047;47.904;8.110;2022-09-03T07:23:15;2.40;;;2.20;;
21771;SDS011;11047;47.904;8.110;2022-09-03T07:26:06;4.25;;;2.17;;
21771;SDS011;11047;47.904;8.110;2022-09-03T07:29:26;2.97;;;2.00;;
21771;SDS011;11047;47.904;8.110;2022-09-03T08:10:26;3.63;;;2.20;;
21771;SDS011;11047;47.904;8.110;2022-09-03T08:12:55;2.10;;;1.90;;
21771;SDS011;11047;47.904;8.110;2022-09-03T08:15:22;2.22;;;2.00;;
21771;SDS011;11047;47.904;8.110;2022-09-03T08:17:50;4.53;;;2.20;;
21771;SDS011;11047;47.904;8.110;2022-09-03T08:20:17;2.10;;;1.90;;
21771;SDS011;11047;47.904;8.110;2022-09-03T08:22:44;1.90;;;1.80;;
21771;SDS011;11047;47.904;8.110;2022-09-03T08:25:11;4.75;;;2.10;;
21771;SDS011;11047;47.904;8.110;2022-09-03T08:27:39;2.13;;;1.92;;
21771;SDS011;11047;47.904;8.110;2022-09-03T08:30:07;2.58;;;2.22;;
21771;SDS011;11047;47.904;8.110;2022-09-03T08:32:35;3.10;;;2.63;;
21771;SDS011;11047;47.904;8.110;2022-09-03T08:35:03;2.90;;;2.70;;
21771;SDS011;11047;47.904;8.110;2022-09-03T08:37:31;3.03;;;2.70;;
21771;SDS011;11047;47.904;8.110;2022-09-03T08:39:58;3.05;;;2.72;;
21771;SDS011;11047;47.904;8.110;2022-09-03T08:42:32;2.88;;;2.30;;
21771;SDS011;11047;47.904;8.110;2022-09-03T08:45:12;3.55;;;2.25;;
21771;SDS011;11047;47.904;8.110;2022-09-03T08:47:43;2.92;;;1.88;;
21771;SDS011;11047;47.904;8.110;2022-09-03T08:50:15;2.20;;;2.00;;
21771;SDS011;11047;47.904;8.110;2022-09-03T08:52:49;9.93;;;2.38;;
21771;SDS011;11047;47.904;8.110;2022-09-03T08:55:20;7.93;;;2.10;;
21771;SDS011;11047;47.904;8.110;2022-09-03T08:57:53;4.30;;;1.83;;
21771;SDS011;11047;47.904;8.110;2022-09-03T09:00:26;1.92;;;1.60;;
21771;SDS011;11047;47.904;8.110;2022-09-03T09:03:05;4.03;;;1.70;;
21771;SDS011;11047;47.904;8.110;2022-09-03T09:05:46;3.28;;;1.50;;
21771;SDS011;11047;47.904;8.110;2022-09-03T09:08:23;2.25;;;1.83;;
21771;SDS011;11047;47.904;8.110;2022-09-03T09:10:59;2.35;;;2.10;;
21771;SDS011;11047;47.904;8.110;2022-09-03T09:16:08;3.23;;;2.13;;
21771;SDS011;11047;47.904;8.110;2022-09-03T09:18:45;2.10;;;1.90;;
21771;SDS011;11047;47.904;8.110;2022-09-03T09:21:22;3.22;;;2.92;;
21771;SDS011;11047;47.904;8.110;2022-09-03T09:23:53;3.40;;;2.40;;
21771;SDS011;11047;47.904;8.110;2022-09-03T09:26:24;4.10;;;2.03;;
21771;SDS011;11047;47.904;8.110;2022-09-03T09:28:54;2.58;;;2.30;;
21771;SDS011;11047;47.904;8.110;2022-09-03T09:31:26;3.00;;;2.60;;
21771;SDS011;11047;47.904;8.110;2022-09-03T09:33:54;5.65;;;3.13;;
21771;SDS011;11047;47.904;8.110;2022-09-03T09:36:29;4.47;;;2.88;;
21771;SDS011;11047;47.904;8.110;2022-09-03T09:38:56;8.40;;;3.83;;
21771;SDS011;11047;47.904;8.110;2022-09-03T09:41:34;11.05;;;3.75;;
21771;SDS011;11047;47.904;8.110;2022-09-03T09:44:02;5.68;;;3.45;;
21771;SDS011;11047;47.904;8.110;2022-09-03T09:46:32;3.30;;;2.83;;
21771;SDS011;11047;47.904;8.110;2022-09-03T09:49:02;3.33;;;2.30;;
21771;SDS011;11047;47.904;8.110;2022-09-03T09:51:33;1.52;;;1.42;;
21771;SDS011;11047;47.904;8.110;2022-09-03T09:54:00;8.02;;;1.63;;
21771;SDS011;11047;47.904;8.110;2022-09-03T09:56:29;0.70;;;0.50;;
21771;SDS011;11047;47.904;8.110;2022-09-03T09:59:04;0.80;;;0.80;;
21771;SDS011;11047;47.904;8.110;2022-09-03T10:01:33;1.05;;;0.75;;
21771;SDS011;11047;47.904;8.110;2022-09-03T10:04:07;1.27;;;0.50;;
21771;SDS011;11047;47.904;8.110;2022-09-03T10:06:36;1.17;;;0.55;;
21771;SDS011;11047;47.904;8.110;2022-09-03T10:09:22;0.73;;;0.60;;
21771;SDS011;11047;47.904;8.110;2022-09-03T10:11:53;0.52;;;0.50;;
21771;SDS011;11047;47.904;8.110;2022-09-03T10:14:31;0.60;;;0.60;;
21771;SDS011;11047;47.904;8.110;2022-09-03T10:17:03;0.73;;;0.73;;
21771;SDS011;11047;47.904;8.110;2022-09-03T10:19:38;1.27;;;0.70;;
21771;SDS011;11047;47.904;8.110;2022-09-03T10:22:29;2.10;;;0.70;;
21771;SDS011;11047;47.904;8.110;2022-09-03T10:25:05;1.73;;;0.77;;
21771;SDS011;11047;47.904;8.110;2022-09-03T10:27:34;6.60;;;1.13;;
21771;SDS011;11047;47.904;8.110;2022-09-03T10:30:05;0.50;;;0.50;;
21771;SDS011;11047;47.904;8.110;2022-09-03T10:32:35;2.80;;;0.82;;
21771;SDS011;11047;47.904;8.110;2022-09-03T10:35:09;0.50;;;0.40;;
21771;SDS011;11047;47.904;8.110;2022-09-03T10:37:46;1.45;;;0.63;;
21771;SDS011;11047;47.904;8.110;2022-09-03T10:40:33;2.78;;;0.88;;
21771;SDS011;11047;47.904;8.110;2022-09-03T10:43:19;0.50;;;0.50;;
21771;SDS011;11047;47.904;8.110;2022-09-03T10:46:13;0.60;;;0.60;;
21771;SDS011;11047;47.904;8.110;2022-09-03T10:48:55;2.20;;;0.60;;
21771;SDS011;11047;47.904;8.110;2022-09-03T10:51:39;1.65;;;0.70;;
21771;SDS011;11047;47.904;8.110;2022-09-03T10:54:23;0.68;;;0.60;;
21771;SDS011;11047;47.904;8.110;2022-09-03T10:57:02;2.05;;;0.50;;
21771;SDS011;11047;47.904;8.110;2022-09-03T10:59:41;1.27;;;0.50;;
21771;SDS011;11047;47.904;8.110;2022-09-03T11:02:31;0.65;;;0.65;;
21771;SDS011;11047;47.904;8.110;2022-09-03T11:05:22;0.70;;;0.57;;
21771;SDS011;11047;47.904;8.110;2022-09-03T11:07:56;0.40;;;0.40;;
21771;SDS011;11047;47.904;8.110;2022-09-03T11:10:27;0.40;;;0.40;;
21771;SDS011;11047;47.904;8.110;2022-09-03T11:12:58;1.95;;;0.50;;
21771;SDS011;11047;47.904;8.110;2022-09-03T11:15:32;0.60;;;0.38;;
21771;SDS011;11047;47.904;8.110;2022-09-03T11:18:06;0.50;;;0.50;;
21771;SDS011;11047;47.904;8.110;2022-09-03T11:20:41;0.93;;;0.57;;
21771;SDS011;11047;47.904;8.110;2022-09-03T11:23:10;0.40;;;0.40;;
21771;SDS011;11047;47.904;8.110;2022-09-03T11:25:40;0.45;;;0.40;;
21771;SDS011;11047;47.904;8.110;2022-09-03T11:28:11;0.22;;;0.22;;
21771;SDS011;11047;47.904;8.110;2022-09-03T11:30:48;0.32;;;0.32;;
21771;SDS011;11047;47.904;8.110;2022-09-03T11:33:29;0.30;;;0.30;;
21771;SDS011;11047;47.904;8.110;2022-09-03T11:36:00;0.50;;;0.40;;
21771;SDS011;11047;47.904;8.110;2022-09-03T11:38:30;0.40;;;0.40;;
21771;SDS011;11047;47.904;8.110;2022-09-03T11:40:59;0.30;;;0.30;;
21771;SDS011;11047;47.904;8.110;2022-09-03T11:43:28;1.85;;;0.30;;
21771;SDS011;11047;47.904;8.110;2022-09-03T11:46:04;0.30;;;0.25;;
21771;SDS011;11047;47.904;8.110;2022-09-03T11:48:38;0.32;;;0.32;;
21771;SDS011;11047;47.904;8.110;2022-09-03T11:51:17;0.40;;;0.40;;
21771;SDS011;11047;47.904;8.110;2022-09-03T11:53:52;1.00;;;0.43;;
21771;SDS011;11047;47.904;8.110;2022-09-03T11:56:20;0.43;;;0.43;;
21771;SDS011;11047;47.904;8.110;2022-09-03T11:58:58;0.50;;;0.50;;
21771;SDS011;11047;47.904;8.110;2022-09-03T12:01:31;0.82;;;0.65;;
21771;SDS011;11047;47.904;8.110;2022-09-03T12:04:02;0.32;;;0.30;;
21771;SDS011;11047;47.904;8.110;2022-09-03T12:09:28;1.10;;;0.40;;
21771;SDS011;11047;47.904;8.110;2022-09-03T12:12:15;0.32;;;0.32;;
21771;SDS011;11047;47.904;8.110;2022-09-03T12:14:58;0.52;;;0.30;;
21771;SDS011;11047;47.904;8.110;2022-09-03T12:17:31;0.30;;;0.30;;
21771;SDS011;11047;47.904;8.110;2022-09-03T12:20:10;0.30;;;0.30;;
21771;SDS011;11047;47.904;8.110;2022-09-03T12:22:38;0.30;;;0.30;;
21771;SDS011;11047;47.904;8.110;2022-09-03T12:25:08;0.47;;;0.40;;
21771;SDS011;11047;47.904;8.110;2022-09-03T12:27:35;0.30;;;0.30;;
21771;SDS011;11047;47.904;8.110;2022-09-03T12:30:03;0.47;;;0.30;;
21771;SDS011;11047;47.904;8.110;2022-09-03T12:32:39;0.40;;;0.40;;
21771;SDS011;11047;47.904;8.110;2022-09-03T12:35:12;0.52;;;0.20;;
21771;SDS011;11047;47.904;8.110;2022-09-03T12:37:41;0.20;;;0.20;;
21771;SDS011;11047;47.904;8.110;2022-09-03T12:40:17;0.85;;;0.30;;
21771;SDS011;11047;47.904;8.110;2022-09-03T12:42:45;0.20;;;0.20;;
21771;SDS011;11047;47.904;8.110;2022-09-03T12:45:13;0.20;;;0.20;;
21771;SDS011;11047;47.904;8.110;2022-09-03T12:47:43;0.30;;;0.30;;
21771;SDS011;11047;47.904;8.110;2022-09-03T12:50:12;0.22;;;0.20;;
21771;SDS011;11047;47.904;8.110;2022-09-03T12:52:40;0.20;;;0.20;;
21771;SDS011;11047;47.904;8.110;2022-09-03T12:55:15;0.20;;;0.20;;
21771;SDS011;11047;47.904;8.110;2022-09-03T12:57:52;0.40;;;0.40;;
21771;SDS011;11047;47.904;8.110;2022-09-03T13:00:22;0.20;;;0.20;;
21771;SDS011;11047;47.904;8.110;2022-09-03T13:02:50;0.20;;;0.20;;
21771;SDS011;11047;47.904;8.110;2022-09-03T13:05:24;0.30;;;0.30;;
21771;SDS011;11047;47.904;8.110;2022-09-03T13:07:56;0.22;;;0.22;;
21771;SDS011;11047;47.904;8.110;2022-09-03T13:10:30;0.23;;;0.20;;
21771;SDS011;11047;47.904;8.110;2022-09-03T13:13:01;0.45;;;0.45;;
21771;SDS011;11047;47.904;8.110;2022-09-03T13:15:34;0.27;;;0.20;;
21771;SDS011;11047;47.904;8.110;2022-09-03T13:18:14;0.32;;;0.32;;
21771;SDS011;11047;47.904;8.110;2022-09-03T13:20:53;0.30;;;0.30;;
21771;SDS011;11047;47.904;8.110;2022-09-03T13:26:34;0.40;;;0.40;;
21771;SDS011;11047;47.904;8.110;2022-09-03T13:29:14;0.30;;;0.30;;
21771;SDS011;11047;47.904;8.110;2022-09-03T13:31:54;0.20;;;0.20;;
21771;SDS011;11047;47.904;8.110;2022-09-03T13:37:08;0.63;;;0.55;;
21771;SDS011;11047;47.904;8.110;2022-09-03T13:39:42;0.40;;;0.40;;
21771;SDS011;11047;47.904;8.110;2022-09-03T13:44:48;0.50;;;0.50;;
21771;SDS011;11047;47.904;8.110;2022-09-03T13:47:24;1.25;;;0.50;;
21771;SDS011;11047;47.904;8.110;2022-09-03T13:49:59;0.60;;;0.60;;
21771;SDS011;11047;47.904;8.110;2022-09-03T13:52:48;0.40;;;0.40;;
21771;SDS011;11047;47.904;8.110;2022-09-03T13:55:22;0.70;;;0.52;;
21771;SDS011;11047;47.904;8.110;2022-09-03T13:57:53;2.38;;;1.15;;
21771;SDS011;11047;47.904;8.110;2022-09-03T14:00:24;0.40;;;0.40;;
21771;SDS011;11047;47.904;8.110;2022-09-03T14:02:56;1.35;;;0.70;;
21771;SDS011;11047;47.904;8.110;2022-09-03T14:05:33;0.73;;;0.73;;
21771;SDS011;11047;47.904;8.110;2022-09-03T14:08:14;0.60;;;0.60;;
21771;SDS011;11047;47.904;8.110;2022-09-03T14:10:58;0.77;;;0.70;;
21771;SDS011;11047;47.904;8.110;2022-09-03T14:13:36;1.23;;;0.70;;
21771;SDS011;11047;47.904;8.110;2022-09-03T14:16:23;0.80;;;0.70;;
21771;SDS011;11047;47.904;8.110;2022-09-03T14:18:56;0.75;;;0.70;;
21771;SDS011;11047;47.904;8.110;2022-09-03T14:21:28;1.67;;;1.58;;
21771;SDS011;11047;47.904;8.110;2022-09-03T14:24:03;0.70;;;0.57;;
21771;SDS011;11047;47.904;8.110;2022-09-03T14:26:47;0.70;;;0.70;;
21771;SDS011;11047;47.904;8.110;2022-09-03T14:29:16;0.52;;;0.52;;
21771;SDS011;11047;47.904;8.110;2022-09-03T14:31:51;0.60;;;0.60;;
21771;SDS011;11047;47.904;8.110;2022-09-03T14:34:38;0.80;;;0.70;;
21771;SDS011;11047;47.904;8.110;2022-09-03T14:37:25;0.70;;;0.63;;
21771;SDS011;11047;47.904;8.110;2022-09-03T14:40:10;1.05;;;0.70;;
21771;SDS011;11047;47.904;8.110;2022-09-03T14:42:44;0.80;;;0.80;;
21771;SDS011;11047;47.904;8.110;2022-09-03T14:45:23;0.90;;;0.73;;
21771;SDS011;11047;47.904;8.110;2022-09-03T14:48:14;1.02;;;0.80;;
21771;SDS011;11047;47.904;8.110;2022-09-03T14:50:57;0.77;;;0.77;;
21771;SDS011;11047;47.904;8.110;2022-09-03T14:56:45;1.15;;;1.10;;
21771;SDS011;11047;47.904;8.110;2022-09-03T14:59:25;1.02;;;0.95;;
21771;SDS011;11047;47.904;8.110;2022-09-03T15:02:10;2.15;;;1.10;;
21771;SDS011;11047;47.904;8.110;2022-09-03T15:04:45;1.15;;;0.98;;
21771;SDS011;11047;47.904;8.110;2022-09-03T15:07:25;1.13;;;1.05;;
21771;SDS011;11047;47.904;8.110;2022-09-03T15:10:01;1.98;;;1.40;;
21771;SDS011;11047;47.904;8.110;2022-09-03T15:12:38;1.13;;;1.02;;
21771;SDS011;11047;47.904;8.110;2022-09-03T15:15:09;0.82;;;0.82;;
21771;SDS011;11047;47.904;8.110;2022-09-03T15:17:53;1.10;;;1.10;;
21771;SDS011;11047;47.904;8.110;2022-09-03T15:20:35;1.33;;;1.00;;
21771;SDS011;11047;47.904;8.110;2022-09-03T15:29:16;1.00;;;0.90;;
21771;SDS011;11047;47.904;8.110;2022-09-03T15:31:54;0.88;;;0.88;;
21771;SDS011;11047;47.904;8.110;2022-09-03T15:34:35;0.85;;;0.85;;
21771;SDS011;11047;47.904;8.110;2022-09-03T15:37:16;1.90;;;0.90;;
21771;SDS011;11047;47.904;8.110;2022-09-03T15:39:56;0.70;;;0.70;;
21771;SDS011;11047;47.904;8.110;2022-09-03T15:42:27;1.85;;;1.15;;
21771;SDS011;11047;47.904;8.110;2022-09-03T15:44:59;1.25;;;1.10;;
21771;SDS011;11047;47.904;8.110;2022-09-03T15:47:36;2.75;;;1.00;;
21771;SDS011;11047;47.904;8.110;2022-09-03T15:50:14;1.00;;;0.90;;
21771;SDS011;11047;47.904;8.110;2022-09-03T15:52:48;1.08;;;0.93;;
21771;SDS011;11047;47.904;8.110;2022-09-03T15:55:23;3.88;;;1.55;;
21771;SDS011;11047;47.904;8.110;2022-09-03T15:57:57;1.20;;;1.10;;
21771;SDS011;11047;47.904;8.110;2022-09-03T16:00:37;1.38;;;0.98;;
21771;SDS011;11047;47.904;8.110;2022-09-03T16:03:17;1.40;;;1.30;;
21771;SDS011;11047;47.904;8.110;2022-09-03T16:05:57;3.05;;;1.25;;
21771;SDS011;11047;47.904;8.110;2022-09-03T16:08:31;1.10;;;1.00;;
21771;SDS011;11047;47.904;8.110;2022-09-03T16:11:05;1.45;;;1.00;;
21771;SDS011;11047;47.904;8.110;2022-09-03T16:13:38;1.75;;;1.40;;
21771;SDS011;11047;47.904;8.110;2022-09-03T16:16:18;1.23;;;0.98;;
21771;SDS011;11047;47.904;8.110;2022-09-03T16:18:54;1.48;;;1.10;;
21771;SDS011;11047;47.904;8.110;2022-09-03T16:21:27;2.40;;;1.10;;
21771;SDS011;11047;47.904;8.110;2022-09-03T16:23:58;1.45;;;1.20;;
21771;SDS011;11047;47.904;8.110;2022-09-03T16:26:29;1.33;;;1.23;;
21771;SDS011;11047;47.904;8.110;2022-09-03T16:29:05;2.58;;;0.93;;
21771;SDS011;11047;47.904;8.110;2022-09-03T16:31:39;1.13;;;1.02;;
21771;SDS011;11047;47.904;8.110;2022-09-03T16:34:22;1.35;;;1.20;;
21771;SDS011;11047;47.904;8.110;2022-09-03T16:36:57;0.90;;;0.90;;
21771;SDS011;11047;47.904;8.110;2022-09-03T16:39:38;1.95;;;1.30;;
21771;SDS011;11047;47.904;8.110;2022-09-03T16:42:17;1.50;;;1.40;;
21771;SDS011;11047;47.904;8.110;2022-09-03T16:44:55;2.05;;;1.00;;
21771;SDS011;11047;47.904;8.110;2022-09-03T16:47:32;1.27;;;1.05;;
21771;SDS011;11047;47.904;8.110;2022-09-03T16:50:10;3.60;;;1.20;;
21771;SDS011;11047;47.904;8.110;2022-09-03T16:52:49;1.42;;;1.10;;
21771;SDS011;11047;47.904;8.110;2022-09-03T16:55:28;2.75;;;1.02;;
21771;SDS011;11047;47.904;8.110;2022-09-03T16:58:07;1.60;;;1.20;;
21771;SDS011;11047;47.904;8.110;2022-09-03T17:00:47;1.50;;;1.40;;
21771;SDS011;11047;47.904;8.110;2022-09-03T17:09:37;1.63;;;1.35;;
21771;SDS011;11047;47.904;8.110;2022-09-03T17:12:13;1.90;;;1.70;;
21771;SDS011;11047;47.904;8.110;2022-09-03T17:14:56;1.35;;;1.25;;
21771;SDS011;11047;47.904;8.110;2022-09-03T17:17:39;1.80;;;1.20;;
21771;SDS011;11047;47.904;8.110;2022-09-03T17:20:20;3.42;;;1.50;;
21771;SDS011;11047;47.904;8.110;2022-09-03T17:22:58;1.95;;;1.20;;
21771;SDS011;11047;47.904;8.110;2022-09-03T17:25:35;1.58;;;1.48;;
21771;SDS011;11047;47.904;8.110;2022-09-03T17:28:13;1.30;;;1.20;;
21771;SDS011;11047;47.904;8.110;2022-09-03T17:30:50;1.80;;;1.38;;
21771;SDS011;11047;47.904;8.110;2022-09-03T17:33:29;2.03;;;1.50;;
21771;SDS011;11047;47.904;8.110;2022-09-03T17:36:11;2.22;;;1.60;;
21771;SDS011;11047;47.904;8.110;2022-09-03T17:41:51;3.28;;;1.52;;
21771;SDS011;11047;47.904;8.110;2022-09-03T17:44:23;2.83;;;1.65;;
21771;SDS011;11047;47.904;8.110;2022-09-03T17:47:03;1.40;;;1.30;;
21771;SDS011;11047;47.904;8.110;2022-09-03T17:49:41;3.50;;;1.45;;
21771;SDS011;11047;47.904;8.110;2022-09-03T17:52:17;1.83;;;1.73;;
21771;SDS011;11047;47.904;8.110;2022-09-03T17:54:52;3.30;;;1.50;;
21771;SDS011;11047;47.904;8.110;2022-09-03T17:57:22;1.50;;;1.38;;
21771;SDS011;11047;47.904;8.110;2022-09-03T17:59:55;2.63;;;1.58;;
21771;SDS011;11047;47.904;8.110;2022-09-03T18:02:28;2.35;;;1.70;;
21771;SDS011;11047;47.904;8.110;2022-09-03T18:04:59;4.05;;;1.52;;
21771;SDS011;11047;47.904;8.110;2022-09-03T18:07:42;1.90;;;1.70;;
21771;SDS011;11047;47.904;8.110;2022-09-03T18:10:16;3.92;;;1.63;;
21771;SDS011;11047;47.904;8.110;2022-09-03T18:12:50;1.65;;;1.55;;
21771;SDS011;11047;47.904;8.110;2022-09-03T18:15:25;2.80;;;2.05;;
21771;SDS011;11047;47.904;8.110;2022-09-03T18:17:57;2.00;;;1.80;;
21771;SDS011;11047;47.904;8.110;2022-09-03T18:20:28;5.27;;;1.70;;
21771;SDS011;11047;47.904;8.110;2022-09-03T18:23:24;1.90;;;1.70;;
21771;SDS011;11047;47.904;8.110;2022-09-03T18:26:14;5.15;;;1.70;;
21771;SDS011;11047;47.904;8.110;2022-09-03T18:29:06;2.65;;;1.77;;
21771;SDS011;11047;47.904;8.110;2022-09-03T18:31:55;3.17;;;2.10;;
21771;SDS011;11047;47.904;8.110;2022-09-03T18:37:24;3.17;;;2.08;;
21771;SDS011;11047;47.904;8.110;2022-09-03T18:40:13;5.32;;;2.17;;
21771;SDS011;11047;47.904;8.110;2022-09-03T18:43:04;3.78;;;2.20;;
21771;SDS011;11047;47.904;8.110;2022-09-03T18:45:57;2.17;;;1.80;;
21771;SDS011;11047;47.904;8.110;2022-09-03T18:48:49;2.45;;;1.90;;
21771;SDS011;11047;47.904;8.110;2022-09-03T18:51:41;3.58;;;1.90;;
21771;SDS011;11047;47.904;8.110;2022-09-03T18:54:36;5.15;;;2.30;;
21771;SDS011;11047;47.904;8.110;2022-09-03T18:57:37;6.13;;;2.33;;
21771;SDS011;11047;47.904;8.110;2022-09-03T19:00:34;7.00;;;2.30;;
21771;SDS011;11047;47.904;8.110;2022-09-03T19:03:25;2.53;;;2.20;;
21771;SDS011;11047;47.904;8.110;2022-09-03T19:06:22;3.22;;;1.85;;
21771;SDS011;11047;47.904;8.110;2022-09-03T19:09:16;4.77;;;2.23;;
21771;SDS011;11047;47.904;8.110;2022-09-03T19:12:15;4.72;;;1.80;;
21771;SDS011;11047;47.904;8.110;2022-09-03T19:15:10;5.85;;;2.00;;
21771;SDS011;11047;47.904;8.110;2022-09-03T19:18:06;3.08;;;2.13;;
21771;SDS011;11047;47.904;8.110;2022-09-03T19:21:03;3.40;;;2.10;;
21771;SDS011;11047;47.904;8.110;2022-09-03T19:23:56;3.45;;;2.15;;
21771;SDS011;11047;47.904;8.110;2022-09-03T19:26:44;2.30;;;1.90;;
21771;SDS011;11047;47.904;8.110;2022-09-03T19:29:42;3.33;;;2.10;;
21771;SDS011;11047;47.904;8.110;2022-09-03T19:32:49;3.17;;;2.10;;
21771;SDS011;11047;47.904;8.110;2022-09-03T19:35:43;3.92;;;1.90;;
21771;SDS011;11047;47.904;8.110;2022-09-03T19:38:37;3.63;;;1.90;;
21771;SDS011;11047;47.904;8.110;2022-09-03T19:41:29;2.60;;;2.05;;
21771;SDS011;11047;47.904;8.110;2022-09-03T19:44:26;3.03;;;2.10;;
21771;SDS011;11047;47.904;8.110;2022-09-03T19:47:24;3.88;;;2.00;;
21771;SDS011;11047;47.904;8.110;2022-09-03T19:50:20;2.05;;;1.85;;
21771;SDS011;11047;47.904;8.110;2022-09-03T19:53:05;1.65;;;1.55;;
21771;SDS011;11047;47.904;8.110;2022-09-03T19:55:53;2.30;;;2.00;;
21771;SDS011;11047;47.904;8.110;2022-09-03T19:58:39;3.83;;;1.50;;
21771;SDS011;11047;47.904;8.110;2022-09-03T20:01:28;2.83;;;2.10;;
21771;SDS011;11047;47.904;8.110;2022-09-03T20:04:16;2.15;;;1.95;;
21771;SDS011;11047;47.904;8.110;2022-09-03T20:07:04;5.90;;;2.13;;
21771;SDS011;11047;47.904;8.110;2022-09-03T20:09:51;3.25;;;2.15;;
21771;SDS011;11047;47.904;8.110;2022-09-03T20:12:39;4.07;;;2.20;;
21771;SDS011;11047;47.904;8.110;2022-09-03T20:15:11;4.75;;;2.10;;
21771;SDS011;11047;47.904;8.110;2022-09-03T20:17:40;3.45;;;2.22;;
21771;SDS011;11047;47.904;8.110;2022-09-03T20:20:18;2.20;;;1.73;;
21771;SDS011;11047;47.904;8.110;2022-09-03T20:22:55;5.78;;;1.80;;
21771;SDS011;11047;47.904;8.110;2022-09-03T20:28:19;3.90;;;1.80;;
21771;SDS011;11047;47.904;8.110;2022-09-03T20:30:57;5.72;;;2.25;;
21771;SDS011;11047;47.904;8.110;2022-09-03T20:33:33;6.25;;;1.98;;
21771;SDS011;11047;47.904;8.110;2022-09-03T20:36:20;2.42;;;1.70;;
21771;SDS011;11047;47.904;8.110;2022-09-03T20:41:45;3.45;;;1.73;;
21771;SDS011;11047;47.904;8.110;2022-09-03T20:44:27;5.45;;;1.77;;
21771;SDS011;11047;47.904;8.110;2022-09-03T20:49:40;5.60;;;2.30;;
21771;SDS011;11047;47.904;8.110;2022-09-03T20:52:17;3.55;;;2.10;;
21771;SDS011;11047;47.904;8.110;2022-09-03T20:54:51;2.35;;;2.10;;
21771;SDS011;11047;47.904;8.110;2022-09-03T20:57:35;2.30;;;2.10;;
21771;SDS011;11047;47.904;8.110;2022-09-03T21:00:09;2.00;;;1.80;;
21771;SDS011;11047;47.904;8.110;2022-09-03T21:02:46;4.50;;;2.00;;
21771;SDS011;11047;47.904;8.110;2022-09-03T21:05:30;2.92;;;2.08;;
21771;SDS011;11047;47.904;8.110;2022-09-03T21:08:06;3.83;;;1.70;;
21771;SDS011;11047;47.904;8.110;2022-09-03T21:10:48;4.18;;;2.20;;
21771;SDS011;11047;47.904;8.110;2022-09-03T21:13:19;2.25;;;2.00;;
21771;SDS011;11047;47.904;8.110;2022-09-03T21:15:57;3.63;;;2.20;;
21771;SDS011;11047;47.904;8.110;2022-09-03T21:18:28;2.78;;;2.13;;
21771;SDS011;11047;47.904;8.110;2022-09-03T21:21:01;2.90;;;2.10;;
21771;SDS011;11047;47.904;8.110;2022-09-03T21:23:38;6.75;;;2.67;;
21771;SDS011;11047;47.904;8.110;2022-09-03T21:26:10;3.35;;;2.08;;
21771;SDS011;11047;47.904;8.110;2022-09-03T21:28:42;2.42;;;2.20;;
21771;SDS011;11047;47.904;8.110;2022-09-03T21:31:14;4.22;;;2.45;;
21771;SDS011;11047;47.904;8.110;2022-09-03T21:33:45;2.72;;;1.88;;
21771;SDS011;11047;47.904;8.110;2022-09-03T21:36:19;2.40;;;2.00;;
21771;SDS011;11047;47.904;8.110;2022-09-03T21:38:56;3.72;;;2.13;;
21771;SDS011;11047;47.904;8.110;2022-09-03T21:41:32;2.35;;;2.15;;
21771;SDS011;11047;47.904;8.110;2022-09-03T21:44:13;8.73;;;2.20;;
21771;SDS011;11047;47.904;8.110;2022-09-03T21:46:53;6.13;;;2.17;;
21771;SDS011;11047;47.904;8.110;2022-09-03T21:49:32;3.55;;;2.05;;
21771;SDS011;11047;47.904;8.110;2022-09-03T21:52:10;4.38;;;2.45;;
21771;SDS011;11047;47.904;8.110;2022-09-03T21:54:43;8.38;;;2.00;;
21771;SDS011;11047;47.904;8.110;2022-09-03T21:57:22;4.57;;;2.30;;
21771;SDS011;11047;47.904;8.110;2022-09-03T22:00:13;2.80;;;2.08;;
21771;SDS011;11047;47.904;8.110;2022-09-03T22:02:50;2.38;;;1.90;;
21771;SDS011;11047;47.904;8.110;2022-09-03T22:05:23;4.00;;;2.17;;
21771;SDS011;11047;47.904;8.110;2022-09-03T22:08:03;3.65;;;2.20;;
21771;SDS011;11047;47.904;8.110;2022-09-03T22:10:43;4.27;;;2.20;;
21771;SDS011;11047;47.904;8.110;2022-09-03T22:13:34;3.95;;;2.33;;
21771;SDS011;11047;47.904;8.110;2022-09-03T22:16:19;7.07;;;2.38;;
21771;SDS011;11047;47.904;8.110;2022-09-03T22:18:54;2.28;;;2.08;;
21771;SDS011;11047;47.904;8.110;2022-09-03T22:21:26;6.38;;;2.47;;
21771;SDS011;11047;47.904;8.110;2022-09-03T22:24:30;3.05;;;2.10;;
21771;SDS011;11047;47.904;8.110;2022-09-03T22:27:33;2.45;;;2.03;;